• Join FlightAware (Why Join?)
  • Login
  • US Flag 
04:13AM EST


 

Airport Tracker/Info


-or-


 

Live Flight TrackerFlight Track Log ✈ EJA370 ✈ 15-May-2013 ✈ KDWH - KOKC

Flight Track Log - Related Links

Times and Time Zones

All times are in EDT time to prevent confusion due to time zone crossing. See the EJA370 flight status page for this flight to view local times or setup timezone preferences in your user account.

Time Position Orientation Groundspeed Altitude Reporting Facility
EDT Latitude Longitude Course Direction KTS MPH feet Rate Location/Type
03:50PM 30.0564 -95.5542 203° Southwest 173 199 800  Level Houston Center
03:51PM 30.0242 -95.5700 203° Southwest 214 246 2,000 960 Climbing Houston Center
03:52PM 30.0342 -95.6031 289° West 241 277 2,000  Level Houston Center
03:52PM 30.0531 -95.6342 305° West 233 268 2,000  Level Houston Center
03:53PM 30.0747 -95.6589 315° West 231 266 2,000  Level Houston Center
03:53PM 30.1172 -95.6458 15° North 253 291 2,000  Level Houston Center
03:54PM 30.1383 -95.6314 31° Northeast 247 284 2,000 840 Level Houston Center
03:54PM 30.1706 -95.6106 29° Northeast 238 274 2,800 1,620 Climbing Houston Center
03:55PM 30.1978 -95.5942 27° Northeast 244 281 3,700 2,700 Climbing Houston Center
03:55PM 30.2417 -95.5611 33° Northeast 305 351 5,500 2,880 Climbing Houston Center
03:56PM 30.2697 -95.5419 31° Northeast 299 344 6,700 2,880 Climbing Houston Center
03:57PM 30.3614 -95.5031 20° North 311 358 10,300 3,120 Climbing Houston Center
03:58PM 30.4275 -95.5594 324° Northwest 296 341 13,200 2,820 Climbing Houston Center
03:59PM 30.4964 -95.6186 324° Northwest 304 350 16,200 2,820 Climbing Houston Center
04:00PM 30.5833 -95.6786 329° Northwest 358 412 19,100 3,000 Climbing Houston Center
04:01PM 30.6953 -95.7375 336° Northwest 382 440 22,500 2,340 Climbing Houston Center
04:02PM 30.8000 -95.7936 335° Northwest 405 466 24,000 1,500 Climbing Houston Center
04:03PM 30.9150 -95.8550 335° Northwest 442 509 25,600 1,680 Climbing Houston Center
04:04PM 31.0317 -95.9175 335° Northwest 455 524 27,500 1,920 Climbing Houston Center
04:05PM 31.1494 -95.9775 336° Northwest 456 525 29,600 1,920 Climbing Houston Center
04:06PM 31.2714 -96.0250 342° North 457 526 31,600 1,140 Climbing Houston Center
04:07PM 31.4150 -96.0800 342° North 463 533 32,000 180 Climbing Houston Center
04:08PM 31.5403 -96.1289 342° North 469 540 32,000  Level Houston Center
04:09PM 31.6600 -96.1758 342° North 459 528 32,000  Level Houston Center
04:10PM 31.7778 -96.2233 341° North 452 520 32,000  Level Fort Worth Center
04:11PM 31.8950 -96.2681 342° North 447 514 32,000  Level Fort Worth Center
04:12PM 31.9978 -96.3111 340° North 447 514 32,000  Level Fort Worth Center
04:13PM 32.1192 -96.3586 342° North 447 514 32,000  Level Fort Worth Center
04:14PM 32.2511 -96.4061 343° North 447 514 32,000  Level Fort Worth Center
04:15PM 32.3619 -96.4444 344° North 454 522 32,000  Level Fort Worth Center
04:16PM 32.4672 -96.5392 323° Northwest 437 503 32,000  Level Fort Worth Center
04:17PM 32.5386 -96.6347 312° West 432 497 32,000  Level Fort Worth Center
04:18PM 32.6311 -96.7547 312° West 443 510 32,000  Level Fort Worth Center
04:19PM 32.7089 -96.8578 312° West 455 524 32,000  Level Fort Worth Center
04:20PM 32.8014 -96.9808 312° West 455 524 32,000 600 Level Fort Worth Center
04:21PM 32.8767 -97.0769 313° West 450 518 33,200 960 Climbing Fort Worth Center
04:22PM 32.9647 -97.1981 311° West 440 506 34,000 360 Climbing Fort Worth Center
04:23PM 33.0400 -97.3019 311° West 447 514 34,000  Level Fort Worth Center
04:24PM 33.1339 -97.4233 313° West 453 521 34,000  Level Fort Worth Center
04:25PM 33.2092 -97.5253 311° West 453 521 34,000  Level Fort Worth Center
04:26PM 33.2903 -97.6394 310° West 453 521 34,000  Level Fort Worth Center
04:27PM 33.3839 -97.7617 313° West 453 521 34,000  Level Fort Worth Center
04:28PM 33.4567 -97.8642 310° West 458 527 34,000  Level Fort Worth Center
04:29PM 33.5481 -97.9892 311° West 451 519 34,000  Level Fort Worth Center
04:30PM 33.6267 -98.0919 313° West 457 526 34,000  Level Fort Worth Center
04:31PM 33.7178 -98.2200 311° West 463 533 34,000  Level Fort Worth Center
04:32PM 33.7983 -98.3333 311° West 463 533 34,000  Level Fort Worth Center
04:33PM 33.8789 -98.4492 310° West 457 526 34,000  Level Fort Worth Center
04:34PM 33.9678 -98.5631 313° West 457 526 34,000  Level Fort Worth Center
04:35PM 34.0519 -98.6844 310° West 463 533 34,000  Level Fort Worth Center
04:36PM 34.1386 -98.7961 313° West 463 533 34,000  Level Fort Worth Center
04:37PM 34.2544 -98.8683 333° Northwest 457 526 34,000  Level Fort Worth Center
04:38PM 34.3750 -98.9233 339° North 457 526 34,000  Level Fort Worth Center
04:39PM 34.5019 -98.9481 351° North 457 526 34,000  Level Fort Worth Center
04:40PM 34.6061 -98.9475 360° North 462 532 34,000 -540 Level Fort Worth Center
04:41PM 34.7461 -98.9450 North 457 526 33,000 -1,500 Descending Fort Worth Center
04:42PM 34.8733 -98.9472 359° North 457 526 31,000 -2,100 Descending Fort Worth Center
04:43PM 34.9967 -98.9167 11° North 457 526 28,900 -2,280 Descending Fort Worth Center
04:44PM 35.1142 -98.8653 20° North 445 512 26,500 -2,400 Descending Fort Worth Center
04:45PM 35.2233 -98.8036 25° Northeast 440 506 24,100 -2,400 Descending Fort Worth Center
04:46PM 35.3261 -98.7494 23° Northeast 418 481 21,700 -2,340 Descending Fort Worth Center
04:47PM 35.4267 -98.7025 21° North 393 452 19,400 -1,920 Descending Fort Worth Center
04:48PM 35.5311 -98.6814 North 381 438 17,900 -1,320 Descending Fort Worth Center
04:49PM 35.6375 -98.6700 North 381 438 16,900 -900 Descending Fort Worth Center
04:50PM 35.7378 -98.6486 10° North 369 425 16,200 -600 Descending Fort Worth Center
04:51PM 35.8156 -98.5883 32° Northeast 339 390 15,800 -480 Descending Fort Worth Center
04:52PM 35.8536 -98.5275 52° Northeast 353 406 15,500 -480 Descending Fort Worth Center
04:52PM 35.8728 -98.4867 60° Northeast 331 381 15,300 -540 Descending Fort Worth Center
04:53PM 35.8900 -98.4153 73° East 355 409 15,000 -540 Descending Fort Worth Center
04:53PM 35.8883 -98.3692 93° East 325 374 14,800 -840 Descending Fort Worth Center
04:54PM 35.8658 -98.2997 112° Southeast 353 406 14,200 -1,260 Descending Fort Worth Center
04:54PM 35.8558 -98.2561 106° East 316 364 13,600 -1,620 Descending Fort Worth Center
04:55PM 35.8250 -98.1917 121° Southeast 358 412 12,600 -1,740 Descending Fort Worth Center
04:55PM 35.8044 -98.1531 123° Southeast 327 376 11,900 -1,800 Descending Fort Worth Center
04:56PM 35.7692 -98.0942 126° Southeast 341 392 10,800 -1,800 Descending Fort Worth Center
04:56PM 35.7528 -98.0606 121° Southeast 327 376 10,100 -1,920 Descending Fort Worth Center
04:57PM 35.7217 -98.0092 127° Southeast 291 335 8,900 -2,040 Descending Fort Worth Center
04:57PM 35.7094 -97.9708 111° Southeast 310 357 8,100 -2,100 Descending Fort Worth Center
04:58PM 35.6867 -97.9272 123° Southeast 267 307 6,800 -1,920 Descending Fort Worth Center
04:58PM 35.6742 -97.8964 117° Southeast 287 330 6,200 -1,920 Descending Fort Worth Center
04:59PM 35.6392 -97.8172 119° Southeast 275 316 4,100 -1,380 Descending Fort Worth Center
05:00PM 35.6142 -97.7658 121° Southeast 253 291 4,000 -120 Descending Fort Worth Center
05:00PM 35.6039 -97.7428 119° Southeast 265 305 4,000  Level Fort Worth Center
05:01PM 35.5789 -97.6867 119° Southeast 255 293 4,000  Level Fort Worth Center
05:01PM 35.5706 -97.6689 120° Southeast 260 299 4,000 -120 Level Fort Worth Center
05:02PM 35.5478 -97.6150 117° Southeast 242 278 3,900 -300 Descending Fort Worth Center
05:02PM 35.5375 -97.5972 125° Southeast 248 285 3,700 -900 Descending Fort Worth Center
05:03PM 35.4978 -97.5919 174° South 204 235 3,000 -960 Descending Fort Worth Center
05:03PM 35.4792 -97.5919 180° South 194 223 2,800 -1,020 Descending Fort Worth Center
05:04PM 35.4519 -97.5919 180° South 136 157 2,000 -840 Descending Fort Worth Center
05:04PM 35.4417 -97.5919 180° South 172 198 2,000 -600 Level Fort Worth Center
05:05PM 35.4164 -97.5919 180° South 106 122 1,400 -600 Descending Fort Worth Center
05:05PM 35.4103 -97.5944 198° South 136 157 1,400 24,420 Level Fort Worth Center
05:06PM 35.3914 -97.5919 174° South 119 137 34,000 33,120 Climbing Fort Worth Center